Time;durP1;ratioP1;P1;durP2;ratioP2;P2;SDS_P1;SDS_P2;PMS_P1;PMS_P2;Temp;Humidity;BMP_temperature;BMP_pressure;BME280_temperature;BME280_humidity;BME280_pressure;Samples;Min_cycle;Max_cycle;Signal;HPM_P1;HPM_P2
2021/03/28 00:01:08;;;;;;;34.95;4.78;;;;;;;10.66;100.00;102530.06;5052543;28;20523;-70
2021/03/28 00:03:40;;;;;;;;;;;;;;;10.66;100.00;102513.69;5051763;28;20033;-71
2021/03/28 00:06:19;;;;;;;30.48;4.72;;;;;;;10.65;100.00;102528.38;5052639;28;19924;-71
2021/03/28 00:09:03;;;;;;;34.25;4.55;;;;;;;10.63;100.00;102531.31;5052110;28;20041;-70
2021/03/28 00:11:30;;;;;;;38.50;4.72;;;;;;;10.62;100.00;102523.34;5052169;28;20476;-71
2021/03/28 00:13:57;;;;;;;36.30;5.25;;;;;;;10.61;100.00;102514.28;5052150;28;20128;-70
2021/03/28 00:16:28;;;;;;;35.22;5.63;;;;;;;10.61;100.00;102516.19;5052317;28;20041;-71
2021/03/28 00:19:18;;;;;;;30.00;4.35;;;;;;;10.60;100.00;102519.97;5050788;28;20040;-71
2021/03/28 00:21:54;;;;;;;27.77;4.93;;;;;;;10.60;100.00;102498.09;5052721;28;20044;-70
2021/03/28 00:24:25;;;;;;;35.63;4.70;;;;;;;10.60;100.00;102506.28;5052067;28;20555;-70
2021/03/28 00:27:09;;;;;;;38.97;5.45;;;;;;;10.61;100.00;102494.31;5052081;28;20037;-71
2021/03/28 00:30:03;;;;;;;36.53;5.20;;;;;;;10.61;100.00;102499.78;5051881;28;20037;-71
2021/03/28 00:32:46;;;;;;;29.77;4.20;;;;;;;10.63;100.00;102497.69;5051903;28;20053;-71
2021/03/28 00:35:16;;;;;;;36.70;5.00;;;;;;;10.65;100.00;102517.47;5051824;28;20063;-71
2021/03/28 00:37:45;;;;;;;23.85;4.90;;;;;;;10.63;100.00;102497.69;5051798;28;20036;-71
2021/03/28 00:40:10;;;;;;;25.98;4.10;;;;;;;10.64;100.00;102516.63;5051795;28;20037;-71
2021/03/28 00:42:45;;;;;;;31.02;5.85;;;;;;;10.66;100.00;102513.69;5051665;28;20041;-70
2021/03/28 00:45:34;;;;;;;29.50;4.90;;;;;;;10.66;100.00;102508.22;5050261;28;20506;-69
2021/03/28 00:48:08;;;;;;;31.85;5.45;;;;;;;10.66;100.00;102509.06;5051437;28;20556;-71
2021/03/28 00:51:12;;;;;;;26.77;4.10;;;;;;;10.65;100.00;102501.91;5051289;28;20033;-71
2021/03/28 00:53:48;;;;;;;34.65;5.13;;;;;;;10.65;100.00;102495.59;5051507;28;20029;-70
2021/03/28 00:56:19;;;;;;;27.05;4.50;;;;;;;10.66;100.00;102497.28;5051523;28;20079;-71
2021/03/28 00:58:53;;;;;;;31.45;5.10;;;;;;;10.65;100.00;102496.44;5051609;28;20115;-69
2021/03/28 01:01:22;;;;;;;29.65;4.72;;;;;;;10.66;100.00;102492.66;5051553;28;20037;-69
2021/03/28 01:04:33;;;;;;;35.63;5.85;;;;;;;10.66;100.00;102486.34;5051305;28;20453;-71
2021/03/28 01:07:27;;;;;;;45.00;6.10;;;;;;;10.65;100.00;102487.41;5051493;28;20078;-70
2021/03/28 01:10:30;;;;;;;31.02;5.38;;;;;;;10.64;100.00;102486.56;5051457;28;20033;-71
2021/03/28 01:13:33;;;;;;;32.22;5.20;;;;;;;10.64;100.00;102504.84;5051360;28;20533;-71
2021/03/28 01:16:14;;;;;;;32.80;5.20;;;;;;;10.64;100.00;102502.94;5051301;28;20394;-71
2021/03/28 01:18:56;;;;;;;23.83;5.03;;;;;;;10.64;100.00;102500.22;5051296;28;20067;-71
2021/03/28 01:21:30;;;;;;;34.55;5.13;;;;;;;10.65;100.00;102496.44;5051329;28;20075;-68
2021/03/28 01:24:27;;;;;;;37.42;4.70;;;;;;;10.66;100.00;102491.81;5051214;28;20028;-71
2021/03/28 01:27:15;;;;;;;34.08;5.47;;;;;;;10.65;100.00;102495.59;5051197;28;20058;-71
2021/03/28 01:29:55;;;;;;;34.33;5.75;;;;;;;10.64;100.00;102488.44;5051164;28;20120;-71
2021/03/28 01:32:29;;;;;;;31.70;5.32;;;;;;;10.65;100.00;102484.66;5050910;28;20744;-70
2021/03/28 01:35:03;;;;;;;35.70;6.65;;;;;;;10.64;100.00;102482.97;5051055;28;20479;-71
2021/03/28 01:37:50;;;;;;;36.67;5.28;;;;;;;10.63;100.00;102481.28;5051245;28;20033;-70
2021/03/28 01:40:34;;;;;;;36.80;4.85;;;;;;;10.63;100.00;102467.63;5051158;28;20418;-70
2021/03/28 01:43:15;;;;;;;28.42;6.32;;;;;;;10.61;100.00;102445.97;5051201;28;20059;-70
2021/03/28 01:45:51;;;;;;;35.10;6.40;;;;;;;10.62;100.00;102457.75;5051079;28;20045;-71
2021/03/28 01:48:20;;;;;;;35.42;5.80;;;;;;;10.63;100.00;102451.22;5050993;28;20464;-68
2021/03/28 01:50:51;;;;;;;40.92;5.57;;;;;;;10.63;100.00;102448.50;5051384;28;20459;-70
2021/03/28 01:53:46;;;;;;;33.15;5.13;;;;;;;10.62;100.00;102441.34;5050939;28;20043;-69
2021/03/28 01:56:19;;;;;;;26.63;4.72;;;;;;;10.62;100.00;102452.28;5050451;28;20392;-70
2021/03/28 01:59:14;;;;;;;40.67;5.53;;;;;;;10.63;100.00;102443.03;5051061;28;20037;-70
2021/03/28 02:01:40;;;;;;;;;;;;;;;10.63;100.00;102443.03;5052233;28;20548;-70
2021/03/28 02:04:08;;;;;;;34.00;5.55;;;;;;;10.63;100.00;102460.28;5054780;28;19920;-71
2021/03/28 02:06:40;;;;;;;33.90;5.85;;;;;;;10.62;100.00;102452.28;5054724;28;20479;-71
2021/03/28 02:09:39;;;;;;;29.88;4.18;;;;;;;10.62;100.00;102465.94;5054517;28;20061;-71
2021/03/28 02:12:09;;;;;;;32.55;4.68;;;;;;;10.63;100.00;102462.16;5054797;28;20032;-70
2021/03/28 02:15:01;;;;;;;34.70;5.70;;;;;;;10.63;100.00;102465.75;5054695;28;20388;-69
2021/03/28 02:17:42;;;;;;;37.10;5.03;;;;;;;10.63;100.00;102460.28;5053305;28;20049;-71
2021/03/28 02:20:25;;;;;;;37.70;6.72;;;;;;;10.63;100.00;102448.50;5054568;28;20259;-71
2021/03/28 02:23:29;;;;;;;32.63;5.70;;;;;;;10.63;100.00;102443.03;5054366;28;20033;-71
2021/03/28 02:26:27;;;;;;;29.88;4.85;;;;;;;10.63;100.00;102448.50;5054421;28;20033;-71
2021/03/28 02:29:10;;;;;;;41.17;6.68;;;;;;;10.62;100.00;102442.19;5053462;28;20124;-71
2021/03/28 02:32:04;;;;;;;35.22;6.13;;;;;;;10.62;100.00;102435.88;5054483;28;20065;-71
2021/03/28 02:34:43;;;;;;;34.25;6.15;;;;;;;10.61;100.00;102434.22;5054174;28;20173;-69
2021/03/28 02:37:13;;;;;;;34.65;5.53;;;;;;;10.61;100.00;102451.44;5054301;28;20029;-71
2021/03/28 02:39:57;;;;;;;39.67;5.63;;;;;;;10.62;100.00;102436.72;5054004;28;20525;-71
2021/03/28 02:42:32;;;;;;;29.80;4.20;;;;;;;10.62;100.00;102449.56;5054161;28;20040;-71
2021/03/28 02:45:16;;;;;;;36.55;6.70;;;;;;;10.63;100.00;102437.56;5053889;28;20471;-70
2021/03/28 02:47:51;;;;;;;34.70;5.68;;;;;;;10.63;100.00;102448.50;5053878;28;20487;-70
2021/03/28 02:50:17;;;;;;;;;;;;;;;10.64;100.00;102433.78;5054328;28;20055;-69
2021/03/28 02:53:00;;;;;;;30.55;4.28;;;;;;;10.63;100.00;102437.56;5053860;28;19913;-70
2021/03/28 02:55:50;;;;;;;30.45;6.70;;;;;;;10.62;100.00;102441.34;5053622;28;20037;-70
2021/03/28 02:58:37;;;;;;;34.33;5.50;;;;;;;10.61;100.00;102435.03;5053699;28;20090;-69
2021/03/28 03:01:32;;;;;;;30.45;5.53;;;;;;;10.63;100.00;102453.97;5053711;28;20033;-71
2021/03/28 03:03:58;;;;;;;37.58;6.90;;;;;;;10.63;100.00;102443.03;5052396;28;20086;-70
2021/03/28 03:06:56;;;;;;;36.78;6.82;;;;;;;10.62;100.00;102430.44;5053689;28;20037;-71
2021/03/28 03:09:47;;;;;;;31.38;5.78;;;;;;;10.61;100.00;102429.59;5052204;28;20045;-70
2021/03/28 03:12:25;;;;;;;33.00;5.95;;;;;;;10.63;100.00;102422.03;5052062;28;20450;-71
2021/03/28 03:15:06;;;;;;;30.38;5.13;;;;;;;10.63;100.00;102432.09;5053328;28;20467;-71
2021/03/28 03:17:47;;;;;;;29.70;5.00;;;;;;;10.62;100.00;102424.97;5053504;28;20375;-71
2021/03/28 03:20:34;;;;;;;36.10;5.20;;;;;;;10.63;100.00;102432.09;5053463;28;20067;-70
2021/03/28 03:23:27;;;;;;;32.00;4.57;;;;;;;10.64;100.00;102433.78;5053443;28;20024;-71
2021/03/28 03:26:24;;;;;;;35.45;5.78;;;;;;;10.63;100.00;102424.75;5053408;28;20033;-70
2021/03/28 03:29:14;;;;;;;33.78;5.40;;;;;;;10.65;100.00;102421.81;5053026;28;20513;-70
2021/03/28 03:31:49;;;;;;;46.30;6.45;;;;;;;10.64;100.00;102423.69;5052908;28;20053;-71
2021/03/28 03:34:45;;;;;;;34.80;4.85;;;;;;;10.64;100.00;102411.94;5053178;28;20488;-70
2021/03/28 03:37:31;;;;;;;35.97;5.80;;;;;;;10.65;100.00;102413.63;5053180;28;20550;-69
2021/03/28 03:40:06;;;;;;;34.30;5.05;;;;;;;10.64;100.00;102422.88;5051848;28;20033;-70
2021/03/28 03:43:29;;;;;;;38.08;5.65;;;;;;;10.64;100.00;102412.78;5051533;28;20040;-70
2021/03/28 03:45:58;;;;;;;40.00;6.00;;;;;;;10.64;100.00;102406.47;5050435;28;20036;-70
2021/03/28 03:48:26;;;;;;;33.72;5.65;;;;;;;10.62;100.00;102412.13;5050268;28;20120;-70
2021/03/28 03:50:57;;;;;;;37.90;5.60;;;;;;;10.63;100.00;102416.56;5051548;28;20075;-71
2021/03/28 03:53:51;;;;;;;39.30;5.30;;;;;;;10.65;100.00;102416.34;5052470;28;20082;-69
2021/03/28 03:56:51;;;;;;;34.25;5.88;;;;;;;10.64;100.00;102418.25;5052673;28;20506;-70
2021/03/28 03:59:56;;;;;;;54.92;6.80;;;;;;;10.66;100.00;102420.75;5051459;28;20041;-70
2021/03/28 04:02:46;;;;;;;34.10;6.30;;;;;;;10.66;100.00;102418.03;5052434;28;20047;-69
2021/03/28 04:05:49;;;;;;;42.97;4.82;;;;;;;10.66;100.00;102398.91;5052425;28;20041;-70
2021/03/28 04:08:44;;;;;;;35.00;6.05;;;;;;;10.64;100.00;102404.56;5052509;28;20522;-71
2021/03/28 04:11:28;;;;;;;37.58;5.40;;;;;;;10.65;100.00;102409.00;5052525;28;20060;-70
2021/03/28 04:14:12;;;;;;;49.42;5.68;;;;;;;10.66;100.00;102415.28;5052103;28;20033;-70
2021/03/28 04:16:56;;;;;;;30.25;4.60;;;;;;;10.66;100.00;102420.75;5052232;28;20059;-71
2021/03/28 04:19:31;;;;;;;43.90;6.03;;;;;;;10.66;100.00;102420.75;5052012;28;20131;-71
2021/03/28 04:22:23;;;;;;;37.50;4.85;;;;;;;10.66;100.00;102437.16;5052271;28;20318;-71
2021/03/28 04:25:32;;;;;;;38.65;5.35;;;;;;;10.66;100.00;102431.69;5051435;28;20094;-70
2021/03/28 04:28:29;;;;;;;38.10;6.03;;;;;;;10.66;100.00;102434.44;5052138;28;20028;-68
2021/03/28 04:30:57;;;;;;;32.67;5.40;;;;;;;10.67;100.00;102430.66;5051888;28;20053;-71
2021/03/28 04:33:35;;;;;;;32.55;5.05;;;;;;;10.68;100.00;102446.00;5051841;28;20060;-71
2021/03/28 04:36:14;;;;;;;38.17;6.70;;;;;;;10.67;100.00;102442.41;5051803;28;20236;-70
2021/03/28 04:38:55;;;;;;;29.58;4.65;;;;;;;10.67;100.00;102436.13;5051850;28;20087;-70
2021/03/28 04:41:51;;;;;;;36.08;5.15;;;;;;;10.68;100.00;102435.06;5051883;28;20082;-71
2021/03/28 04:44:50;;;;;;;32.85;5.18;;;;;;;10.68;100.00;102437.78;5052067;28;20410;-70
2021/03/28 04:48:06;;;;;;;31.25;4.57;;;;;;;10.68;100.00;102424.13;5050696;28;20056;-70
2021/03/28 04:51:07;;;;;;;38.43;5.03;;;;;;;10.68;100.00;102440.53;5038669;28;20487;-70
2021/03/28 04:54:00;;;;;;;38.42;6.25;;;;;;;10.66;100.00;102448.09;5051700;28;20274;-70
2021/03/28 04:56:44;;;;;;;27.70;5.03;;;;;;;10.66;100.00;102437.16;5051903;28;20033;-70
2021/03/28 04:59:09;;;;;;;35.97;6.43;;;;;;;10.65;100.00;102435.47;5051554;28;20491;-71
2021/03/28 05:01:58;;;;;;;40.00;6.22;;;;;;;10.66;100.00;102439.91;5050277;28;20060;-71
2021/03/28 05:04:45;;;;;;;32.35;6.38;;;;;;;10.65;100.00;102463.66;5051337;28;20115;-71
2021/03/28 05:07:41;;;;;;;39.35;6.30;;;;;;;10.64;100.00;102444.72;5051402;28;20045;-71
2021/03/28 05:10:40;;;;;;;34.05;6.00;;;;;;;10.60;100.00;102444.28;5051284;28;20057;-71
2021/03/28 05:13:24;;;;;;;33.85;6.20;;;;;;;10.61;100.00;102445.13;5050022;28;20055;-70
2021/03/28 05:15:49;;;;;;;41.47;5.63;;;;;;;10.62;100.00;102452.28;5051399;28;20091;-70
2021/03/28 05:18:45;;;;;;;39.75;6.05;;;;;;;10.62;100.00;102463.22;5051324;28;20033;-70
2021/03/28 05:21:29;;;;;;;32.33;5.18;;;;;;;10.61;100.00;102461.53;5051350;28;20044;-69
2021/03/28 05:24:20;;;;;;;41.10;5.75;;;;;;;10.60;100.00;102454.38;5051221;28;20025;-70
2021/03/28 05:27:24;;;;;;;42.58;5.55;;;;;;;10.61;100.00;102434.22;5051298;28;20032;-70
2021/03/28 05:30:14;;;;;;;40.58;5.75;;;;;;;10.62;100.00;102457.75;5051185;28;20032;-70
2021/03/28 05:33:13;;;;;;;43.53;6.03;;;;;;;10.61;100.00;102450.59;5049849;28;20049;-71
2021/03/28 05:35:49;;;;;;;34.60;5.45;;;;;;;10.61;100.00;102456.91;5051133;28;20056;-70
2021/03/28 05:38:42;;;;;;;45.53;6.25;;;;;;;10.62;100.00;102457.75;5053626;28;20475;-69
2021/03/28 05:41:32;;;;;;;33.28;4.35;;;;;;;10.62;100.00;102446.81;5055219;28;20079;-69
2021/03/28 05:44:16;;;;;;;36.85;5.10;;;;;;;10.62;100.00;102457.75;5055087;28;20379;-70
2021/03/28 05:47:13;;;;;;;30.40;5.28;;;;;;;10.61;100.00;102456.06;5055003;28;20132;-71
2021/03/28 05:50:23;;;;;;;44.70;6.05;;;;;;;10.60;100.00;102444.28;5055132;28;20068;-71
2021/03/28 05:53:13;;;;;;;32.13;6.13;;;;;;;10.61;100.00;102434.22;5054407;28;20036;-70
2021/03/28 05:55:44;;;;;;;32.88;5.97;;;;;;;10.63;100.00;102445.78;5054936;28;20052;-70
2021/03/28 05:58:28;;;;;;;45.25;6.15;;;;;;;10.64;100.00;102444.72;5054797;28;20449;-71
2021/03/28 06:01:26;;;;;;;39.58;5.95;;;;;;;10.66;100.00;102442.63;5054906;28;20124;-70
2021/03/28 06:04:47;;;;;;;43.60;6.03;;;;;;;10.65;100.00;102446.41;5054270;28;20372;-70
2021/03/28 06:07:34;;;;;;;41.80;5.28;;;;;;;10.64;100.00;102461.97;5053948;28;20110;-71
2021/03/28 06:10:19;;;;;;;35.17;5.55;;;;;;;10.65;100.00;102468.25;5053169;28;20399;-71
2021/03/28 06:13:03;;;;;;;40.88;6.32;;;;;;;10.67;100.00;102444.31;5053548;28;20097;-70
2021/03/28 06:15:47;;;;;;;35.85;5.68;;;;;;;10.67;100.00;102474.38;5053197;28;20474;-71
2021/03/28 06:18:38;;;;;;;36.72;5.70;;;;;;;10.68;100.00;102467.84;5053114;28;20033;-69
2021/03/28 06:21:34;;;;;;;46.50;6.57;;;;;;;10.69;100.00;102477.75;5054409;28;20131;-71
2021/03/28 06:24:18;;;;;;;36.90;6.40;;;;;;;10.68;100.00;102478.78;5054173;28;20506;-69
2021/03/28 06:27:11;;;;;;;38.97;6.35;;;;;;;10.68;100.00;102473.31;5054509;28;20025;-69
2021/03/28 06:30:01;;;;;;;48.65;7.85;;;;;;;10.69;100.00;102483.19;5054446;28;20033;-70
2021/03/28 06:33:04;;;;;;;39.10;6.32;;;;;;;10.69;100.00;102496.88;5053995;28;20460;-71
2021/03/28 06:36:08;;;;;;;48.42;7.13;;;;;;;10.69;100.00;102483.19;5054100;28;20471;-70
2021/03/28 06:39:10;;;;;;;40.45;6.55;;;;;;;10.69;100.00;102491.41;5054050;28;20021;-70
2021/03/28 06:41:42;;;;;;;44.35;5.90;;;;;;;10.71;100.00;102489.31;5054314;28;20041;-70
2021/03/28 06:44:19;;;;;;;48.25;7.35;;;;;;;10.72;100.00;102491.00;5054192;28;20083;-68
2021/03/28 06:47:08;;;;;;;40.10;6.53;;;;;;;10.71;100.00;102502.97;5052563;28;20043;-70
2021/03/28 06:50:05;;;;;;;36.10;5.70;;;;;;;10.71;100.00;102489.31;5053931;28;20060;-70
2021/03/28 06:52:30;;;;;;;49.92;6.95;;;;;;;10.72;100.00;102507.38;5053923;28;20044;-71
2021/03/28 06:55:28;;;;;;;55.92;6.57;;;;;;;10.72;100.00;102491.84;5053774;28;20029;-71
2021/03/28 06:58:16;;;;;;;55.22;7.45;;;;;;;10.73;100.00;102498.16;5053737;28;20483;-71
2021/03/28 07:01:03;;;;;;;40.05;6.10;;;;;;;10.73;100.00;102477.13;5053758;28;20613;-70
2021/03/28 07:03:35;;;;;;;41.47;6.10;;;;;;;10.74;100.00;102488.91;5053687;28;20033;-70
2021/03/28 07:06:15;;;;;;;40.45;6.82;;;;;;;10.75;100.00;102474.19;5053631;28;20066;-70
2021/03/28 07:09:03;;;;;;;41.33;5.97;;;;;;;10.78;100.00;102468.34;5053514;28;20052;-71
2021/03/28 07:11:34;;;;;;;48.35;6.30;;;;;;;10.79;100.00;102468.13;5053550;28;20036;-70
2021/03/28 07:14:30;;;;;;;45.03;5.85;;;;;;;10.80;100.00;102467.09;5053532;28;20036;-69
2021/03/28 07:17:30;;;;;;;39.60;6.78;;;;;;;10.81;100.00;102468.75;5053753;28;20036;-70
2021/03/28 07:20:25;;;;;;;38.17;5.47;;;;;;;10.85;100.00;102482.84;5053482;28;20037;-71
2021/03/28 07:23:00;;;;;;;49.63;6.82;;;;;;;10.85;100.00;102486.44;5053567;28;20039;-70
2021/03/28 07:25:56;;;;;;;37.95;7.38;;;;;;;10.88;100.00;102501.59;5053367;28;20554;-70
2021/03/28 07:29:00;;;;;;;45.28;6.55;;;;;;;10.88;100.00;102501.59;5053247;28;20116;-71
2021/03/28 07:31:50;;;;;;;41.28;6.80;;;;;;;10.91;100.00;102516.72;5053148;28;20056;-71
2021/03/28 07:34:22;;;;;;;36.70;7.75;;;;;;;10.93;100.00;102522.84;5053145;28;20033;-70
2021/03/28 07:37:22;;;;;;;43.00;5.85;;;;;;;10.94;100.00;102525.41;5053077;28;20037;-70
2021/03/28 07:40:06;;;;;;;44.75;5.60;;;;;;;10.97;100.00;102515.94;5053149;28;20036;-70
2021/03/28 07:42:47;;;;;;;47.47;6.97;;;;;;;10.99;100.00;102514.69;5053269;28;20441;-69
2021/03/28 07:45:30;;;;;;;29.52;4.85;;;;;;;11.01;100.00;102528.16;5052899;28;20048;-71
2021/03/28 07:48:02;;;;;;;35.53;6.15;;;;;;;10.99;100.00;102531.09;5052833;28;20043;-69
2021/03/28 07:50:40;;;;;;;49.10;6.85;;;;;;;11.03;100.00;102532.34;5052795;28;20087;-70
2021/03/28 07:53:42;;;;;;;48.55;7.35;;;;;;;11.05;100.00;102519.31;5052866;28;20155;-70
2021/03/28 07:56:14;;;;;;;43.97;6.90;;;;;;;11.08;100.00;102523.53;5053185;28;20037;-70
2021/03/28 07:59:03;;;;;;;40.88;6.00;;;;;;;11.08;100.00;102518.06;5052002;28;20120;-69
2021/03/28 08:01:56;;;;;;;38.17;6.97;;;;;;;11.10;100.00;102530.47;5052588;28;20098;-70
2021/03/28 08:04:40;;;;;;;38.50;5.55;;;;;;;11.11;100.00;102534.09;5052338;28;20052;-71
2021/03/28 08:07:34;;;;;;;38.95;5.88;;;;;;;11.12;100.00;102542.09;5052498;28;20071;-70
2021/03/28 08:10:14;;;;;;;36.15;5.93;;;;;;;11.12;100.00;102527.56;5052291;28;20040;-70
2021/03/28 08:13:22;;;;;;;44.15;6.25;;;;;;;11.11;100.00;102540.41;5052317;28;20032;-70
2021/03/28 08:16:18;;;;;;;43.10;6.38;;;;;;;11.09;100.00;102545.22;5052051;28;20053;-70
2021/03/28 08:19:08;;;;;;;42.25;6.65;;;;;;;11.12;100.00;102553.03;5052019;28;20140;-69
2021/03/28 08:21:51;;;;;;;45.83;5.05;;;;;;;11.11;100.00;102551.34;5052080;28;20029;-70
2021/03/28 08:24:23;;;;;;;34.90;6.60;;;;;;;11.14;100.00;102556.41;5052109;28;20428;-70
2021/03/28 08:27:01;;;;;;;45.25;6.38;;;;;;;11.14;100.00;102563.75;5052006;28;20028;-70
2021/03/28 08:29:33;;;;;;;42.47;5.93;;;;;;;11.14;100.00;102567.34;5050434;28;20384;-69
2021/03/28 08:32:28;;;;;;;52.42;7.72;;;;;;;11.15;100.00;102570.91;5051655;28;20067;-70
2021/03/28 08:35:00;;;;;;;37.63;6.00;;;;;;;11.14;100.00;102572.81;5051712;28;20036;-68
2021/03/28 08:37:44;;;;;;;39.00;6.43;;;;;;;11.14;100.00;102577.44;5051757;28;20037;-69
2021/03/28 08:40:28;;;;;;;41.53;6.67;;;;;;;11.13;100.00;102571.13;5051765;28;20033;-71
2021/03/28 08:43:07;;;;;;;43.28;6.72;;;;;;;11.17;100.00;102583.34;5051607;28;20111;-71
2021/03/28 08:46:03;;;;;;;34.40;6.57;;;;;;;11.17;100.00;102580.59;5051686;28;20483;-71
2021/03/28 08:48:49;;;;;;;43.83;6.05;;;;;;;11.20;100.00;102581.25;5051512;28;20120;-70
2021/03/28 08:51:53;;;;;;;45.47;6.53;;;;;;;11.23;100.00;102581.66;5051555;28;20060;-70
2021/03/28 08:54:48;;;;;;;39.17;6.60;;;;;;;11.26;100.00;102591.34;5051440;28;20028;-69
2021/03/28 08:57:20;;;;;;;45.65;5.95;;;;;;;11.29;100.00;102612.84;5051392;28;20044;-72
2021/03/28 09:00:16;;;;;;;45.38;6.82;;;;;;;11.30;100.00;102598.97;5051272;28;20029;-70
2021/03/28 09:03:09;;;;;;;42.70;7.20;;;;;;;11.33;100.00;102593.09;5051145;28;20102;-68
2021/03/28 09:05:45;;;;;;;54.60;5.72;;;;;;;11.35;100.00;102606.56;5051159;28;20047;-71
2021/03/28 09:08:23;;;;;;;39.95;6.47;;;;;;;11.35;100.00;102609.28;5051124;28;20041;-70
2021/03/28 09:10:48;;;;;;;41.28;6.43;;;;;;;11.38;100.00;102589.72;5050872;28;20072;-69
2021/03/28 09:13:32;;;;;;;49.33;7.07;;;;;;;11.38;100.00;102597.94;5051043;28;20056;-70
2021/03/28 09:16:01;;;;;;;33.45;6.13;;;;;;;11.40;100.00;102604.03;5051205;28;20090;-70
2021/03/28 09:18:48;;;;;;;41.05;6.68;;;;;;;11.44;100.00;102594.38;5051142;28;20033;-71
2021/03/28 09:21:35;;;;;;;38.53;6.22;;;;;;;11.47;100.00;102626.81;5051098;28;20490;-70
2021/03/28 09:24:13;;;;;;;43.95;8.68;;;;;;;11.51;100.00;102598.00;5050916;28;20025;-70
2021/03/28 09:26:42;;;;;;;41.05;6.82;;;;;;;11.54;100.00;102622.19;5051092;28;20044;-71
2021/03/28 09:29:43;;;;;;;50.42;6.65;;;;;;;11.56;100.00;102614.63;5049865;28;20494;-71
2021/03/28 09:32:49;;;;;;;38.83;4.80;;;;;;;11.56;100.00;102625.56;5048380;28;20400;-70
2021/03/28 09:35:21;;;;;;;38.92;6.75;;;;;;;11.57;100.00;102630.00;5049524;28;20100;-70
2021/03/28 09:37:49;;;;;;;34.33;6.65;;;;;;;11.60;100.00;102629.59;5050788;28;20486;-69
2021/03/28 09:40:48;;;;;;;42.30;6.57;;;;;;;11.59;100.00;102625.16;5050735;28;20025;-70
2021/03/28 09:43:29;;;;;;;42.90;6.45;;;;;;;11.59;100.00;102636.09;5050805;28;20116;-70
2021/03/28 09:45:59;;;;;;;38.92;6.50;;;;;;;11.57;100.00;102637.38;5050729;28;20455;-71
2021/03/28 09:48:34;;;;;;;41.50;5.82;;;;;;;11.56;100.00;102622.84;5050731;28;20021;-71
2021/03/28 09:51:24;;;;;;;36.58;6.28;;;;;;;11.57;100.00;102635.47;5050487;28;20037;-71
2021/03/28 09:54:18;;;;;;;53.97;6.03;;;;;;;11.57;100.00;102630.00;5050485;28;20061;-71
2021/03/28 09:57:25;;;;;;;51.08;7.75;;;;;;;11.62;100.00;102641.16;5050426;28;20498;-72
2021/03/28 10:00:13;;;;;;;41.85;5.85;;;;;;;11.64;100.00;102649.19;5049914;28;20513;-70
2021/03/28 10:03:18;;;;;;;44.40;6.32;;;;;;;11.71;100.00;102634.47;5050627;28;20487;-70
2021/03/28 10:05:45;;;;;;;46.97;6.20;;;;;;;11.75;100.00;102630.25;5050745;28;20033;-69
2021/03/28 10:08:15;;;;;;;44.17;6.68;;;;;;;11.78;100.00;102640.84;5050389;28;20438;-70
2021/03/28 10:10:58;;;;;;;44.45;6.35;;;;;;;11.88;100.00;102624.03;5050629;28;20533;-69
2021/03/28 10:13:50;;;;;;;52.42;7.68;;;;;;;11.91;100.00;102634.56;5050641;28;20372;-71
2021/03/28 10:16:24;;;;;;;38.70;5.80;;;;;;;11.94;100.00;102646.97;5039170;28;20441;-71
2021/03/28 10:19:04;;;;;;;33.53;5.28;;;;;;;11.92;100.00;102651.81;5050494;28;20483;-70
2021/03/28 10:21:39;;;;;;;41.92;7.05;;;;;;;11.92;100.00;102651.81;5050908;28;20037;-70
2021/03/28 10:24:11;;;;;;;39.53;6.45;;;;;;;11.95;100.00;102646.78;5053923;28;20111;-71
2021/03/28 10:26:40;;;;;;;39.40;5.47;;;;;;;11.96;100.00;102650.34;5054312;28;20136;-70
2021/03/28 10:29:41;;;;;;;44.88;6.65;;;;;;;11.98;100.00;102656.50;5053921;28;20529;-69
2021/03/28 10:32:33;;;;;;;38.42;7.22;;;;;;;11.98;100.00;102657.34;5053889;28;20045;-70
2021/03/28 10:35:20;;;;;;;36.67;6.65;;;;;;;12.00;100.00;102654.38;5053879;28;20108;-71
2021/03/28 10:38:03;;;;;;;41.22;6.65;;;;;;;12.00;100.00;102643.44;5053982;28;20045;-70
2021/03/28 10:40:37;;;;;;;46.67;6.85;;;;;;;11.97;100.00;102661.09;5052820;28;20055;-68
2021/03/28 10:43:37;;;;;;;44.55;6.72;;;;;;;11.96;100.00;102661.31;5054092;28;20525;-70
2021/03/28 10:46:14;;;;;;;35.67;5.70;;;;;;;11.90;100.00;102681.31;5054080;28;20112;-69
2021/03/28 10:49:16;;;;;;;34.08;5.30;;;;;;;11.90;100.00;102664.88;5053730;28;20032;-71
2021/03/28 10:52:04;;;;;;;35.95;5.60;;;;;;;11.88;100.00;102672.47;5053805;28;20033;-70
2021/03/28 10:55:04;;;;;;;50.88;7.55;;;;;;;11.91;100.00;102677.53;5053699;28;20033;-71
2021/03/28 10:58:07;;;;;;;48.90;7.72;;;;;;;11.89;100.00;102677.72;5053625;28;20040;-70
2021/03/28 11:01:09;;;;;;;45.35;6.18;;;;;;;11.88;100.00;102667.00;5053461;28;20561;-71
2021/03/28 11:03:54;;;;;;;37.53;5.80;;;;;;;11.86;100.00;102674.56;5053268;28;20055;-71
2021/03/28 11:06:41;;;;;;;38.30;6.43;;;;;;;11.86;100.00;102677.31;5053519;28;20041;-70
2021/03/28 11:09:31;;;;;;;46.17;6.15;;;;;;;11.85;100.00;102672.88;5053425;28;20487;-70
2021/03/28 11:12:33;;;;;;;43.15;6.35;;;;;;;11.88;100.00;102669.72;5053285;28;20061;-71
2021/03/28 11:15:17;;;;;;;46.72;7.38;;;;;;;11.85;100.00;102672.88;5053402;28;20033;-72
2021/03/28 11:18:19;;;;;;;44.80;7.03;;;;;;;11.86;100.00;102674.56;5053104;28;20483;-70
2021/03/28 11:21:00;;;;;;;40.05;8.13;;;;;;;11.83;100.00;102675.81;5052995;28;20031;-70
2021/03/28 11:24:11;;;;;;;41.35;7.47;;;;;;;11.86;100.00;102669.09;5052933;28;20068;-70
2021/03/28 11:26:49;;;;;;;38.90;7.43;;;;;;;11.89;100.00;102680.47;5053040;28;20083;-70
2021/03/28 11:29:52;;;;;;;43.38;7.53;;;;;;;11.89;100.00;102679.63;5051474;28;20494;-69
2021/03/28 11:32:49;;;;;;;37.63;5.95;;;;;;;11.92;100.00;102660.03;5052672;28;20094;-68
2021/03/28 11:35:40;;;;;;;47.00;7.80;;;;;;;11.87;100.00;102668.88;5052518;28;20071;-71
2021/03/28 11:38:18;;;;;;;33.97;5.90;;;;;;;11.84;100.00;102649.28;5052698;28;20106;-70
2021/03/28 11:41:11;;;;;;;48.33;7.40;;;;;;;11.82;100.00;102674.16;5052706;28;20039;-70
2021/03/28 11:43:48;;;;;;;48.42;7.82;;;;;;;11.82;100.00;102678.78;5052429;28;20130;-69
2021/03/28 11:46:29;;;;;;;47.90;7.60;;;;;;;11.80;100.00;102670.75;5052679;28;20079;-72
2021/03/28 11:48:55;;;;;;;51.90;8.15;;;;;;;11.84;100.00;102683.00;5052591;28;20040;-71
2021/03/28 11:51:26;;;;;;;52.97;8.02;;;;;;;11.88;100.00;102694.38;5052590;28;20044;-70
2021/03/28 11:54:09;;;;;;;42.95;7.32;;;;;;;11.85;100.00;102686.56;5051172;28;20060;-71
2021/03/28 11:56:44;;;;;;;40.33;6.90;;;;;;;11.81;100.00;102688.03;5052458;28;20040;-69
2021/03/28 11:59:26;;;;;;;34.03;6.53;;;;;;;11.78;100.00;102681.03;5083834;28;20051;-71
2021/03/28 12:01:59;;;;;;;46.10;6.28;;;;;;;11.76;100.00;102689.44;5052522;28;20045;-71
2021/03/28 12:04:29;;;;;;;33.50;5.63;;;;;;;11.74;100.00;102677.84;5052049;28;20033;-70
2021/03/28 12:07:16;;;;;;;44.38;6.05;;;;;;;11.73;100.00;102681.66;5052267;28;20036;-71
2021/03/28 12:09:47;;;;;;;47.60;7.28;;;;;;;11.72;100.00;102696.38;5052125;28;20033;-69
2021/03/28 12:12:39;;;;;;;48.55;7.47;;;;;;;11.70;100.00;102690.28;5052399;28;20103;-69
2021/03/28 12:15:42;;;;;;;47.50;7.32;;;;;;;11.71;100.00;102693.84;5050978;28;20056;-70
2021/03/28 12:21:04;;;;;;;36.60;5.95;;;;;;;11.73;100.00;102687.13;5052152;28;20025;-71
2021/03/28 12:23:44;;;;;;;44.33;7.13;;;;;;;11.72;100.00;102679.97;5052191;28;20090;-70
2021/03/28 12:26:15;;;;;;;36.67;6.22;;;;;;;11.74;100.00;102713.44;5052063;28;20438;-69
2021/03/28 12:28:44;;;;;;;37.63;6.38;;;;;;;11.76;100.00;102707.75;5051880;28;20487;-71
2021/03/28 12:31:33;;;;;;;47.95;7.82;;;;;;;11.72;100.00;102699.13;5051704;28;20063;-70
2021/03/28 12:34:07;;;;;;;41.75;6.78;;;;;;;11.75;100.00;102701.44;5051899;28;20384;-69